Time;durP1;ratioP1;P1;durP2;ratioP2;P2;SDS_P1;SDS_P2;PMS_P1;PMS_P2;Temp;Humidity;BMP_temperature;BMP_pressure;BME280_temperature;BME280_humidity;BME280_pressure;Samples;Min_cycle;Max_cycle;Signal;HPM_P1;HPM_P2
2024/01/12 00:00:16;;;;;;;43.75;41.65;;;;;;;;;;4124728;28;20042;-60
2024/01/12 00:02:18;;;;;;;44.80;42.17;;;;;;;;;;4115493;28;20447;-60
2024/01/12 00:04:19;;;;;;;50.45;47.80;;;;;;;;;;4114707;28;20085;-60
2024/01/12 00:06:21;;;;;;;48.92;46.25;;;;;;;;;;4115569;28;20074;-60
2024/01/12 00:08:23;;;;;;;48.93;46.13;;;;;;;;;;4115515;28;20538;-60
2024/01/12 00:10:24;;;;;;;46.58;43.58;;;;;;;;;;4115796;28;20047;-60
2024/01/12 00:12:26;;;;;;;45.30;42.72;;;;;;;;;;4115455;28;20038;-60
2024/01/12 00:14:28;;;;;;;46.42;44.13;;;;;;;;;;4115588;28;20043;-60
2024/01/12 00:16:29;;;;;;;49.42;46.92;;;;;;;;;;4115622;28;20046;-60
2024/01/12 00:18:31;;;;;;;47.90;45.15;;;;;;;;;;4115792;28;20035;-61
2024/01/12 00:20:33;;;;;;;44.13;41.50;;;;;;;;;;4115427;28;20035;-61
2024/01/12 00:22:35;;;;;;;45.80;43.55;;;;;;;;;;4115749;28;20043;-61
2024/01/12 00:24:37;;;;;;;45.45;43.33;;;;;;;;;;4114173;28;20043;-61
2024/01/12 00:26:38;;;;;;;43.78;41.60;;;;;;;;;;4115496;28;20042;-61
2024/01/12 00:28:40;;;;;;;55.03;51.17;;;;;;;;;;4115161;28;20039;-61
2024/01/12 00:30:45;;;;;;;53.97;50.20;;;;;;;;;;4114893;28;20455;-61
2024/01/12 00:32:46;;;;;;;62.28;57.00;;;;;;;;;;4114016;28;20035;-61
2024/01/12 00:34:48;;;;;;;66.10;60.05;;;;;;;;;;4114050;28;20569;-61
2024/01/12 00:36:53;;;;;;;59.70;54.78;;;;;;;;;;4113580;28;20056;-61
2024/01/12 00:38:55;;;;;;;59.17;54.50;;;;;;;;;;4113590;28;20054;-61
2024/01/12 00:40:57;;;;;;;51.13;47.73;;;;;;;;;;4114280;28;20063;-60
2024/01/12 00:42:58;;;;;;;50.78;47.42;;;;;;;;;;4113346;28;20301;-62
2024/01/12 00:45:00;;;;;;;52.22;49.33;;;;;;;;;;4114842;28;20043;-61
2024/01/12 00:47:01;;;;;;;47.50;44.30;;;;;;;;;;4115402;28;20038;-61
2024/01/12 00:49:03;;;;;;;48.80;45.78;;;;;;;;;;4115241;28;20050;-61
2024/01/12 00:51:05;;;;;;;48.40;45.47;;;;;;;;;;4115296;28;20081;-61
2024/01/12 00:53:07;;;;;;;47.85;45.33;;;;;;;;;;4115461;28;20045;-61
2024/01/12 00:55:08;;;;;;;46.80;44.35;;;;;;;;;;4098057;28;20055;-61
2024/01/12 00:57:10;;;;;;;46.83;44.30;;;;;;;;;;4115286;28;20094;-60
2024/01/12 00:59:11;;;;;;;50.47;47.83;;;;;;;;;;4115158;28;20089;-61
2024/01/12 01:01:13;;;;;;;52.50;49.45;;;;;;;;;;4115081;28;20078;-61
2024/01/12 01:03:15;;;;;;;49.30;46.53;;;;;;;;;;4114730;28;20134;-61
2024/01/12 01:05:17;;;;;;;48.60;45.42;;;;;;;;;;4115073;28;20043;-61
2024/01/12 01:07:18;;;;;;;41.67;39.70;;;;;;;;;;4115369;28;20043;-61
2024/01/12 01:09:20;;;;;;;44.97;42.67;;;;;;;;;;4115074;28;20047;-61
2024/01/12 01:11:22;;;;;;;48.27;45.83;;;;;;;;;;4114861;28;20050;-61
2024/01/12 01:13:23;;;;;;;49.23;46.77;;;;;;;;;;4115420;28;20167;-61
2024/01/12 01:15:25;;;;;;;50.30;47.45;;;;;;;;;;4116445;28;20328;-61
2024/01/12 01:17:27;;;;;;;43.63;41.30;;;;;;;;;;4117828;28;20076;-60
2024/01/12 01:19:29;;;;;;;43.15;40.75;;;;;;;;;;4118211;28;20050;-61
2024/01/12 01:21:30;;;;;;;45.47;43.30;;;;;;;;;;4117965;28;20090;-61
2024/01/12 01:23:32;;;;;;;44.15;42.20;;;;;;;;;;4118034;28;20309;-61
2024/01/12 01:25:35;;;;;;;49.08;46.33;;;;;;;;;;4118094;28;20050;-61
2024/01/12 01:27:37;;;;;;;49.20;46.30;;;;;;;;;;4118082;28;20470;-61
2024/01/12 01:29:38;;;;;;;44.95;42.85;;;;;;;;;;4117891;28;20074;-61
2024/01/12 01:31:40;;;;;;;45.10;42.95;;;;;;;;;;4117587;28;20491;-61
2024/01/12 01:33:42;;;;;;;47.85;45.55;;;;;;;;;;4117896;28;20050;-60
2024/01/12 01:35:43;;;;;;;50.10;47.63;;;;;;;;;;4117704;28;20070;-61
2024/01/12 01:37:45;;;;;;;47.67;44.63;;;;;;;;;;4117527;28;20137;-61
2024/01/12 01:39:47;;;;;;;46.90;44.15;;;;;;;;;;4117858;28;20097;-61
2024/01/12 01:41:48;;;;;;;49.67;47.25;;;;;;;;;;4117860;28;20039;-61
2024/01/12 01:43:51;;;;;;;47.58;44.97;;;;;;;;;;4117746;28;20045;-61
2024/01/12 01:45:52;;;;;;;49.00;46.38;;;;;;;;;;4117551;28;20097;-61
2024/01/12 01:47:54;;;;;;;49.88;47.22;;;;;;;;;;4117703;28;20109;-61
2024/01/12 01:49:56;;;;;;;50.33;47.63;;;;;;;;;;4117531;28;20039;-61
2024/01/12 01:51:58;;;;;;;48.40;46.03;;;;;;;;;;4117589;28;20545;-61
2024/01/12 01:54:00;;;;;;;47.27;44.80;;;;;;;;;;4117392;28;20380;-61
2024/01/12 01:56:02;;;;;;;48.47;46.47;;;;;;;;;;4117601;28;20292;-61
2024/01/12 01:58:04;;;;;;;42.45;40.72;;;;;;;;;;4117335;28;20038;-60
2024/01/12 02:00:06;;;;;;;45.85;43.85;;;;;;;;;;4117244;28;20073;-61
2024/01/12 02:02:08;;;;;;;42.78;40.88;;;;;;;;;;4116958;28;20093;-61
2024/01/12 02:04:10;;;;;;;44.53;42.63;;;;;;;;;;4116939;28;20081;-61
2024/01/12 02:06:12;;;;;;;41.70;39.92;;;;;;;;;;4117442;28;20031;-61
2024/01/12 02:08:14;;;;;;;46.38;43.97;;;;;;;;;;4116915;28;20503;-61
2024/01/12 02:10:16;;;;;;;44.13;41.80;;;;;;;;;;4117240;28;20126;-61
2024/01/12 02:12:17;;;;;;;44.67;42.47;;;;;;;;;;4117427;28;20047;-61
2024/01/12 02:14:19;;;;;;;45.70;43.50;;;;;;;;;;4117387;28;20047;-61
2024/01/12 02:16:21;;;;;;;46.78;44.10;;;;;;;;;;4117353;28;20046;-61
2024/01/12 02:18:22;;;;;;;47.45;44.90;;;;;;;;;;4117113;28;20035;-61
2024/01/12 02:20:24;;;;;;;47.45;44.70;;;;;;;;;;4117136;28;20077;-61
2024/01/12 02:22:26;;;;;;;53.20;50.07;;;;;;;;;;4117231;28;20045;-61
2024/01/12 02:24:28;;;;;;;50.92;47.80;;;;;;;;;;4117010;28;20404;-62
2024/01/12 02:26:30;;;;;;;48.67;45.80;;;;;;;;;;4116633;28;20039;-61
2024/01/12 02:28:32;;;;;;;53.03;49.67;;;;;;;;;;4116713;28;20049;-61
2024/01/12 02:30:33;;;;;;;52.08;49.10;;;;;;;;;;4116441;28;20356;-61
2024/01/12 02:32:35;;;;;;;49.28;46.50;;;;;;;;;;4115555;28;20050;-61
2024/01/12 02:34:37;;;;;;;54.00;50.80;;;;;;;;;;4115152;28;20078;-61
2024/01/12 02:36:38;;;;;;;50.20;47.50;;;;;;;;;;4115150;28;20054;-61
2024/01/12 02:38:40;;;;;;;49.97;47.13;;;;;;;;;;4115523;28;20082;-60
2024/01/12 02:40:42;;;;;;;53.95;51.00;;;;;;;;;;4097779;29;20097;-60
2024/01/12 02:42:43;;;;;;;51.90;48.92;;;;;;;;;;4115640;28;20106;-60
2024/01/12 02:44:45;;;;;;;49.42;46.53;;;;;;;;;;4115230;28;20051;-60
2024/01/12 02:46:47;;;;;;;49.72;46.85;;;;;;;;;;4115580;28;20050;-60
2024/01/12 02:48:48;;;;;;;53.67;50.75;;;;;;;;;;4116681;28;20057;-60
2024/01/12 02:50:50;;;;;;;54.25;51.20;;;;;;;;;;4114896;28;20053;-60
2024/01/12 02:52:52;;;;;;;51.33;48.20;;;;;;;;;;4116290;28;20074;-60
2024/01/12 02:54:53;;;;;;;51.10;47.90;;;;;;;;;;4116696;28;20062;-60
2024/01/12 02:56:55;;;;;;;48.20;45.63;;;;;;;;;;4116565;28;20038;-60
2024/01/12 02:58:57;;;;;;;49.00;46.53;;;;;;;;;;4116414;28;20380;-61
2024/01/12 03:00:59;;;;;;;50.72;48.03;;;;;;;;;;4116342;28;20422;-60
2024/01/12 03:03:01;;;;;;;47.13;44.63;;;;;;;;;;4116141;28;20510;-60
2024/01/12 03:05:03;;;;;;;52.13;48.97;;;;;;;;;;4115630;28;20394;-59
2024/01/12 03:07:04;;;;;;;50.38;47.65;;;;;;;;;;4116558;28;20087;-60
2024/01/12 03:09:07;;;;;;;49.35;46.95;;;;;;;;;;4116284;28;20047;-60
2024/01/12 03:11:09;;;;;;;48.88;46.60;;;;;;;;;;4116344;28;20046;-59
2024/01/12 03:13:11;;;;;;;49.53;46.92;;;;;;;;;;4116424;28;20073;-60
2024/01/12 03:15:12;;;;;;;44.45;42.42;;;;;;;;;;4116183;28;20043;-60
2024/01/12 03:17:14;;;;;;;46.25;44.15;;;;;;;;;;4116143;28;20116;-60
2024/01/12 03:19:16;;;;;;;46.95;44.85;;;;;;;;;;4116351;28;20049;-60
2024/01/12 03:21:18;;;;;;;44.13;42.20;;;;;;;;;;4116328;28;20035;-60
2024/01/12 03:23:20;;;;;;;52.35;49.75;;;;;;;;;;4116277;28;20439;-59
2024/01/12 03:25:21;;;;;;;48.72;46.20;;;;;;;;;;4116107;28;20053;-60
2024/01/12 03:27:23;;;;;;;48.45;45.63;;;;;;;;;;4116218;28;20039;-60
2024/01/12 03:29:24;;;;;;;50.33;47.50;;;;;;;;;;4116177;28;20046;-60
2024/01/12 03:31:26;;;;;;;52.83;49.60;;;;;;;;;;4116291;28;20047;-60
2024/01/12 03:33:28;;;;;;;51.80;48.88;;;;;;;;;;4116262;28;20055;-60
2024/01/12 03:35:30;;;;;;;54.13;50.95;;;;;;;;;;4116150;28;20478;-60
2024/01/12 03:37:32;;;;;;;55.85;52.53;;;;;;;;;;4115958;28;20050;-60
2024/01/12 03:39:33;;;;;;;55.30;52.03;;;;;;;;;;4115025;28;20526;-60
2024/01/12 03:41:35;;;;;;;49.75;47.00;;;;;;;;;;4115864;28;20376;-60
2024/01/12 03:43:36;;;;;;;51.83;49.05;;;;;;;;;;4115714;28;20038;-60
2024/01/12 03:45:38;;;;;;;50.67;48.03;;;;;;;;;;4115874;28;20042;-60
2024/01/12 03:47:40;;;;;;;53.58;50.42;;;;;;;;;;4115964;28;20057;-60
2024/01/12 03:49:42;;;;;;;51.37;48.67;;;;;;;;;;4116146;28;20574;-61
2024/01/12 03:51:43;;;;;;;52.67;50.03;;;;;;;;;;4115543;28;20039;-61
2024/01/12 03:53:45;;;;;;;53.50;50.53;;;;;;;;;;4115938;28;20423;-61
2024/01/12 03:55:47;;;;;;;55.67;52.72;;;;;;;;;;4115833;28;20077;-61
2024/01/12 03:57:48;;;;;;;54.83;51.85;;;;;;;;;;4115615;28;20039;-61
2024/01/12 03:59:50;;;;;;;53.40;50.60;;;;;;;;;;4115654;28;20498;-61
2024/01/12 04:01:52;;;;;;;47.60;45.17;;;;;;;;;;4115225;28;20034;-60
2024/01/12 04:03:53;;;;;;;51.70;48.67;;;;;;;;;;4115462;28;20290;-61
2024/01/12 04:05:55;;;;;;;49.63;46.53;;;;;;;;;;4115834;28;20431;-61
2024/01/12 04:07:57;;;;;;;52.00;49.25;;;;;;;;;;4115587;28;20407;-61
2024/01/12 04:09:59;;;;;;;49.97;47.45;;;;;;;;;;4115441;28;20049;-61
2024/01/12 04:12:01;;;;;;;51.10;48.75;;;;;;;;;;4115643;28;20082;-61
2024/01/12 04:14:03;;;;;;;46.35;44.00;;;;;;;;;;4115667;28;20498;-61
2024/01/12 04:16:04;;;;;;;47.90;45.63;;;;;;;;;;4115649;28;20411;-61
2024/01/12 04:18:06;;;;;;;48.47;46.05;;;;;;;;;;4115586;28;20066;-61
2024/01/12 04:20:08;;;;;;;47.75;45.55;;;;;;;;;;4115565;28;20042;-61
2024/01/12 04:22:10;;;;;;;44.72;42.65;;;;;;;;;;4115751;28;20050;-61
2024/01/12 04:24:12;;;;;;;43.97;42.07;;;;;;;;;;4130605;28;20125;-61
2024/01/12 04:26:13;;;;;;;45.60;43.75;;;;;;;;;;4115615;28;20345;-61
2024/01/12 04:28:15;;;;;;;46.80;44.70;;;;;;;;;;4115570;28;20046;-61
2024/01/12 04:30:17;;;;;;;45.70;43.30;;;;;;;;;;4115244;28;20442;-62
2024/01/12 04:32:18;;;;;;;46.83;44.78;;;;;;;;;;4115857;28;20047;-61
2024/01/12 04:34:20;;;;;;;45.55;43.65;;;;;;;;;;4115361;28;20050;-61
2024/01/12 04:36:25;;;;;;;45.10;43.00;;;;;;;;;;4115230;28;20089;-61
2024/01/12 04:38:27;;;;;;;51.13;48.72;;;;;;;;;;4115455;28;20035;-61
2024/01/12 04:40:29;;;;;;;52.90;50.13;;;;;;;;;;4115372;28;20070;-62
2024/01/12 04:42:31;;;;;;;48.28;46.08;;;;;;;;;;4115211;28;20046;-61
2024/01/12 04:44:33;;;;;;;51.35;48.85;;;;;;;;;;4124752;28;20548;-61
2024/01/12 04:46:34;;;;;;;48.33;46.40;;;;;;;;;;4131228;28;20042;-61
2024/01/12 04:48:36;;;;;;;46.50;44.53;;;;;;;;;;4119278;28;20398;-61
2024/01/12 04:50:38;;;;;;;52.35;49.38;;;;;;;;;;4117426;28;20121;-61
2024/01/12 04:52:39;;;;;;;47.93;45.57;;;;;;;;;;4118632;28;20133;-61
2024/01/12 04:54:41;;;;;;;47.58;45.47;;;;;;;;;;4118540;28;20062;-62
2024/01/12 04:56:43;;;;;;;47.73;45.47;;;;;;;;;;4118478;28;20042;-61
2024/01/12 04:58:44;;;;;;;45.67;43.87;;;;;;;;;;4118343;28;20133;-61
2024/01/12 05:00:46;;;;;;;47.57;45.57;;;;;;;;;;4118457;28;20399;-62
2024/01/12 05:02:48;;;;;;;45.67;43.80;;;;;;;;;;4117921;28;20053;-62
2024/01/12 05:04:50;;;;;;;48.53;46.08;;;;;;;;;;4118598;28;20047;-62
2024/01/12 05:06:51;;;;;;;47.47;45.58;;;;;;;;;;4118015;28;20038;-61
2024/01/12 05:08:53;;;;;;;46.77;44.70;;;;;;;;;;4117896;28;20045;-61
2024/01/12 05:10:57;;;;;;;45.50;43.47;;;;;;;;;;4118285;28;20434;-62
2024/01/12 05:12:59;;;;;;;49.88;46.97;;;;;;;;;;4117857;28;20055;-61
2024/01/12 05:15:01;;;;;;;52.13;49.42;;;;;;;;;;4118271;28;20062;-61
2024/01/12 05:17:03;;;;;;;52.42;49.60;;;;;;;;;;4117943;28;20053;-62
2024/01/12 05:19:05;;;;;;;48.00;45.87;;;;;;;;;;4117485;28;20100;-61
2024/01/12 05:21:07;;;;;;;47.60;45.20;;;;;;;;;;4127581;28;20038;-61
2024/01/12 05:23:09;;;;;;;55.08;52.15;;;;;;;;;;4133998;28;20511;-61
2024/01/12 05:25:11;;;;;;;49.75;47.35;;;;;;;;;;4129224;28;20574;-61
2024/01/12 05:27:13;;;;;;;51.47;49.07;;;;;;;;;;4117922;28;20039;-61
2024/01/12 05:29:15;;;;;;;51.83;49.55;;;;;;;;;;4117859;28;20298;-61
2024/01/12 05:31:17;;;;;;;53.25;50.88;;;;;;;;;;4117962;28;20109;-61
2024/01/12 05:33:18;;;;;;;49.33;46.97;;;;;;;;;;4117737;28;20050;-61
2024/01/12 05:35:20;;;;;;;49.33;47.33;;;;;;;;;;4116497;28;20517;-61
2024/01/12 05:37:22;;;;;;;45.97;44.22;;;;;;;;;;4116737;28;20896;-61
2024/01/12 05:39:23;;;;;;;45.20;42.85;;;;;;;;;;4117531;28;20490;-61
2024/01/12 05:41:25;;;;;;;46.47;44.50;;;;;;;;;;4117814;28;20043;-61
2024/01/12 05:43:27;;;;;;;42.87;41.17;;;;;;;;;;4117445;28;20086;-61
2024/01/12 05:45:28;;;;;;;46.40;44.67;;;;;;;;;;4117762;28;20298;-61
2024/01/12 05:47:30;;;;;;;44.90;43.20;;;;;;;;;;4117530;28;20102;-61
2024/01/12 05:49:32;;;;;;;46.00;44.27;;;;;;;;;;4117661;28;20376;-61
2024/01/12 05:51:33;;;;;;;46.53;44.45;;;;;;;;;;4131408;28;20038;-61
2024/01/12 05:53:38;;;;;;;44.42;42.55;;;;;;;;;;4133786;28;20046;-61
2024/01/12 05:55:40;;;;;;;47.63;45.47;;;;;;;;;;4133779;28;20100;-61
2024/01/12 05:57:41;;;;;;;44.80;42.90;;;;;;;;;;4133486;28;20042;-61
2024/01/12 05:59:43;;;;;;;45.78;43.70;;;;;;;;;;4133615;28;20050;-62
2024/01/12 06:01:45;;;;;;;46.57;44.50;;;;;;;;;;4130908;28;20045;-61
2024/01/12 06:03:47;;;;;;;50.22;47.42;;;;;;;;;;4117276;28;20054;-61
2024/01/12 06:05:51;;;;;;;48.13;45.38;;;;;;;;;;4117277;28;20444;-61
2024/01/12 06:07:55;;;;;;;48.28;46.20;;;;;;;;;;4116919;28;20082;-61
2024/01/12 06:09:57;;;;;;;46.30;44.45;;;;;;;;;;4116695;28;20090;-61
2024/01/12 06:11:58;;;;;;;48.65;46.50;;;;;;;;;;4117115;28;20058;-62
2024/01/12 06:14:00;;;;;;;46.83;44.97;;;;;;;;;;4117319;28;20058;-61
2024/01/12 06:16:02;;;;;;;48.72;46.58;;;;;;;;;;4117006;28;20039;-61
2024/01/12 06:18:04;;;;;;;43.40;41.65;;;;;;;;;;4116709;28;20484;-60
2024/01/12 06:20:07;;;;;;;;;;;;;;;;;;4119574;28;20479;-60
2024/01/12 06:22:09;;;;;;;43.00;41.27;;;;;;;;;;4126711;28;20081;-61
2024/01/12 06:24:11;;;;;;;42.92;41.53;;;;;;;;;;4117149;28;20282;-59
2024/01/12 06:26:14;;;;;;;55.33;52.15;;;;;;;;;;4115198;28;20039;-61
2024/01/12 06:28:15;;;;;;;42.65;40.85;;;;;;;;;;4117188;28;20045;-60
2024/01/12 06:30:17;;;;;;;41.42;39.78;;;;;;;;;;4116822;28;20447;-61
2024/01/12 06:32:19;;;;;;;45.55;43.95;;;;;;;;;;4116812;28;20122;-60
2024/01/12 06:34:21;;;;;;;45.80;44.25;;;;;;;;;;4116513;28;20125;-61
2024/01/12 06:36:22;;;;;;;45.25;43.65;;;;;;;;;;4117003;28;20530;-60
2024/01/12 06:38:24;;;;;;;43.10;41.47;;;;;;;;;;4117157;28;20046;-60
2024/01/12 06:40:26;;;;;;;42.35;40.95;;;;;;;;;;4116918;28;20053;-60
2024/01/12 06:42:30;;;;;;;42.15;40.78;;;;;;;;;;4117052;28;20049;-60
2024/01/12 06:44:32;;;;;;;44.35;42.65;;;;;;;;;;4116809;28;20035;-60
2024/01/12 06:46:35;;;;;;;44.78;43.20;;;;;;;;;;4116561;28;20130;-60
2024/01/12 06:48:37;;;;;;;42.75;41.17;;;;;;;;;;4116754;28;20046;-60
2024/01/12 06:50:39;;;;;;;45.25;43.55;;;;;;;;;;4116840;28;20585;-61
2024/01/12 06:52:40;;;;;;;45.13;42.87;;;;;;;;;;4116643;28;20039;-60
2024/01/12 06:54:43;;;;;;;46.13;43.92;;;;;;;;;;4116423;28;20074;-61
2024/01/12 06:56:44;;;;;;;54.83;51.03;;;;;;;;;;4116627;28;20066;-60
2024/01/12 06:58:47;;;;;;;57.13;52.95;;;;;;;;;;4116599;28;20050;-60
2024/01/12 07:00:49;;;;;;;53.13;49.90;;;;;;;;;;4116399;28;20117;-60
2024/01/12 07:02:50;;;;;;;48.10;45.22;;;;;;;;;;4116130;28;20451;-60
2024/01/12 07:04:52;;;;;;;54.67;51.17;;;;;;;;;;4116794;28;20039;-60
2024/01/12 07:06:54;;;;;;;58.53;53.35;;;;;;;;;;4116565;28;20043;-60
2024/01/12 07:08:55;;;;;;;58.58;54.30;;;;;;;;;;4116062;28;20551;-60
2024/01/12 07:10:57;;;;;;;55.53;51.83;;;;;;;;;;4116237;28;20042;-60
2024/01/12 07:12:59;;;;;;;55.75;51.88;;;;;;;;;;4116288;28;20542;-60
2024/01/12 07:15:00;;;;;;;59.30;55.22;;;;;;;;;;4116441;28;20376;-60
2024/01/12 07:17:02;;;;;;;54.78;51.30;;;;;;;;;;4116533;28;20035;-60
2024/01/12 07:19:04;;;;;;;51.27;48.17;;;;;;;;;;4116106;28;20106;-60
2024/01/12 07:21:06;;;;;;;46.30;44.10;;;;;;;;;;4116297;28;20306;-60
2024/01/12 07:23:09;;;;;;;43.00;41.30;;;;;;;;;;4116386;28;20550;-60
2024/01/12 07:25:10;;;;;;;48.55;46.47;;;;;;;;;;4116307;28;20035;-61
2024/01/12 07:27:12;;;;;;;43.87;42.17;;;;;;;;;;4116233;28;20034;-60
2024/01/12 07:29:14;;;;;;;43.93;42.33;;;;;;;;;;4116113;28;20034;-60
2024/01/12 07:31:16;;;;;;;43.85;42.28;;;;;;;;;;4115885;28;20043;-60
2024/01/12 07:33:18;;;;;;;43.75;42.05;;;;;;;;;;4116368;28;20047;-60
2024/01/12 07:35:21;;;;;;;58.30;54.25;;;;;;;;;;4116168;28;20479;-61
2024/01/12 07:37:23;;;;;;;49.80;47.80;;;;;;;;;;4115829;28;20455;-60
2024/01/12 07:39:24;;;;;;;44.60;42.60;;;;;;;;;;4115934;28;20514;-60
2024/01/12 07:41:26;;;;;;;47.88;45.67;;;;;;;;;;4115767;28;20129;-60
2024/01/12 07:43:30;;;;;;;;;;;;;;;;;;4116226;28;20062;-60
2024/01/12 07:45:31;;;;;;;46.97;44.67;;;;;;;;;;4115649;28;19933;-61
2024/01/12 07:47:33;;;;;;;46.60;44.65;;;;;;;;;;4116100;28;20377;-61
2024/01/12 07:49:35;;;;;;;43.13;41.27;;;;;;;;;;4115957;28;20043;-61
2024/01/12 07:51:36;;;;;;;56.35;51.83;;;;;;;;;;4114641;28;20293;-60
2024/01/12 07:53:38;;;;;;;52.75;49.92;;;;;;;;;;4115665;28;20411;-61
2024/01/12 07:55:40;;;;;;;46.50;44.50;;;;;;;;;;4115549;28;20043;-60
2024/01/12 07:57:41;;;;;;;49.53;47.35;;;;;;;;;;4115862;28;20055;-60
2024/01/12 07:59:43;;;;;;;45.70;43.80;;;;;;;;;;4115847;28;20504;-60
2024/01/12 08:01:45;;;;;;;45.87;43.90;;;;;;;;;;4115435;28;20038;-60
2024/01/12 08:03:47;;;;;;;44.10;42.10;;;;;;;;;;4115456;28;20305;-60
2024/01/12 08:05:49;;;;;;;43.40;41.55;;;;;;;;;;4115718;28;20093;-60
2024/01/12 08:07:50;;;;;;;42.38;40.75;;;;;;;;;;4115841;28;20047;-60
2024/01/12 08:09:52;;;;;;;48.03;44.80;;;;;;;;;;4098102;29;20043;-60
2024/01/12 08:11:54;;;;;;;48.63;46.30;;;;;;;;;;4115429;28;20051;-61
2024/01/12 08:13:55;;;;;;;50.20;47.40;;;;;;;;;;4115684;28;20046;-60
2024/01/12 08:15:57;;;;;;;41.50;39.38;;;;;;;;;;4115471;28;20047;-61
2024/01/12 08:17:59;;;;;;;42.47;40.57;;;;;;;;;;4115498;28;20047;-61
2024/01/12 08:20:00;;;;;;;44.45;42.63;;;;;;;;;;4115816;28;20289;-60
2024/01/12 08:22:02;;;;;;;41.28;39.38;;;;;;;;;;4115567;28;20544;-60
2024/01/12 08:24:05;;;;;;;44.58;42.22;;;;;;;;;;4116146;28;20041;-60
2024/01/12 08:26:07;;;;;;;47.77;44.90;;;;;;;;;;4120420;28;20050;-60
2024/01/12 08:28:09;;;;;;;43.13;40.92;;;;;;;;;;4120796;28;20513;-60
2024/01/12 08:30:10;;;;;;;42.47;40.40;;;;;;;;;;4120867;28;20077;-60
2024/01/12 08:32:13;;;;;;;43.70;40.97;;;;;;;;;;4120770;28;20050;-60
2024/01/12 08:34:14;;;;;;;40.33;38.50;;;;;;;;;;4120732;28;20515;-61
2024/01/12 08:36:16;;;;;;;41.28;39.22;;;;;;;;;;4120865;28;20050;-61
2024/01/12 08:38:18;;;;;;;46.87;44.03;;;;;;;;;;4103448;29;20079;-61
2024/01/12 08:40:19;;;;;;;43.17;40.70;;;;;;;;;;4120642;28;20497;-60
2024/01/12 08:42:21;;;;;;;38.75;37.35;;;;;;;;;;4120652;28;20402;-61
2024/01/12 08:44:22;;;;;;;42.92;40.33;;;;;;;;;;4128977;28;20053;-61
2024/01/12 08:46:24;;;;;;;50.80;47.05;;;;;;;;;;4136923;28;20035;-61
2024/01/12 08:48:26;;;;;;;45.90;42.92;;;;;;;;;;4136622;28;20073;-61
2024/01/12 08:50:30;;;;;;;46.77;43.57;;;;;;;;;;4136671;28;20038;-61
2024/01/12 08:52:32;;;;;;;47.38;44.45;;;;;;;;;;4130457;28;20290;-61
2024/01/12 08:54:33;;;;;;;45.10;42.83;;;;;;;;;;4120732;28;20039;-61
2024/01/12 08:56:35;;;;;;;45.58;43.15;;;;;;;;;;4120822;28;20047;-61
2024/01/12 08:58:37;;;;;;;46.00;43.13;;;;;;;;;;4103210;29;20065;-61
2024/01/12 09:00:39;;;;;;;;;;;;;;;;;;4120928;28;20403;-61
2024/01/12 09:02:41;;;;;;;41.10;39.20;;;;;;;;;;4120026;28;19929;-61
2024/01/12 09:04:42;;;;;;;39.37;37.63;;;;;;;;;;4120534;28;20050;-61
2024/01/12 09:06:44;;;;;;;45.03;41.83;;;;;;;;;;4120556;28;20039;-61
2024/01/12 09:08:46;;;;;;;45.88;43.17;;;;;;;;;;4102952;29;20043;-61
2024/01/12 09:10:48;;;;;;;51.23;46.87;;;;;;;;;;4120649;28;20510;-61
2024/01/12 09:12:49;;;;;;;52.53;48.03;;;;;;;;;;4103553;28;20043;-61
2024/01/12 09:14:52;;;;;;;47.00;43.78;;;;;;;;;;4120548;28;20297;-61
2024/01/12 09:16:54;;;;;;;43.13;40.83;;;;;;;;;;4120469;28;20073;-61
2024/01/12 09:18:55;;;;;;;56.42;51.85;;;;;;;;;;4120606;28;20047;-61
2024/01/12 09:20:57;;;;;;;52.03;47.83;;;;;;;;;;4120267;28;20074;-61
2024/01/12 09:22:59;;;;;;;39.85;37.85;;;;;;;;;;4120534;28;20038;-61
2024/01/12 09:25:01;;;;;;;41.60;38.97;;;;;;;;;;4120463;28;20051;-61
2024/01/12 09:27:02;;;;;;;40.88;38.38;;;;;;;;;;4120277;28;20411;-61
2024/01/12 09:29:04;;;;;;;43.15;40.83;;;;;;;;;;4120274;28;20035;-61
2024/01/12 09:31:06;;;;;;;39.65;37.55;;;;;;;;;;4120526;28;20484;-61
2024/01/12 09:33:08;;;;;;;38.15;36.25;;;;;;;;;;4120573;28;20488;-62
2024/01/12 09:35:10;;;;;;;32.13;30.90;;;;;;;;;;4120441;28;20042;-61
2024/01/12 09:37:12;;;;;;;34.40;33.33;;;;;;;;;;4117842;28;20121;-61
2024/01/12 09:39:14;;;;;;;34.27;33.03;;;;;;;;;;4117685;28;20402;-61
2024/01/12 09:41:22;;;;;;;30.77;29.88;;;;;;;;;;4117528;28;20043;-61
2024/01/12 09:43:27;;;;;;;29.80;28.88;;;;;;;;;;4117707;28;20050;-61
2024/01/12 09:45:30;;;;;;;31.52;30.50;;;;;;;;;;4133837;28;20561;-62
2024/01/12 09:47:32;;;;;;;29.25;28.27;;;;;;;;;;4133657;28;20096;-61
2024/01/12 09:49:34;;;;;;;31.58;30.67;;;;;;;;;;4121037;28;20039;-61
2024/01/12 09:51:35;;;;;;;32.20;30.93;;;;;;;;;;4117636;28;20043;-63
2024/01/12 09:53:37;;;;;;;31.20;30.10;;;;;;;;;;4117962;28;20282;-62
2024/01/12 09:55:39;;;;;;;28.98;28.02;;;;;;;;;;4117399;28;20101;-63
2024/01/12 09:57:41;;;;;;;30.27;29.23;;;;;;;;;;4117759;28;20043;-63
2024/01/12 09:59:43;;;;;;;31.63;30.33;;;;;;;;;;4117334;28;20043;-63
2024/01/12 10:01:45;;;;;;;27.67;26.98;;;;;;;;;;4117163;28;20046;-62
2024/01/12 10:03:47;;;;;;;27.80;27.00;;;;;;;;;;4117117;28;20471;-63
2024/01/12 10:05:49;;;;;;;30.63;29.83;;;;;;;;;;4117418;28;20059;-62
2024/01/12 10:07:51;;;;;;;28.88;28.08;;;;;;;;;;4117636;28;20062;-62
2024/01/12 10:09:53;;;;;;;28.65;27.73;;;;;;;;;;4117306;28;20043;-63
2024/01/12 10:11:55;;;;;;;26.20;25.50;;;;;;;;;;4117463;28;20039;-62
2024/01/12 10:13:57;;;;;;;;;;;;;;;;;;4117885;28;20045;-63
2024/01/12 10:16:01;;;;;;;30.27;29.27;;;;;;;;;;4117342;28;19953;-63
2024/01/12 10:18:03;;;;;;;29.77;28.67;;;;;;;;;;4117192;28;20047;-62
2024/01/12 10:20:05;;;;;;;;;;;;;;;;;;4117508;28;20423;-62
2024/01/12 10:22:12;;;;;;;28.00;27.25;;;;;;;;;;4117185;28;19922;-62
2024/01/12 10:24:16;;;;;;;25.85;25.25;;;;;;;;;;4116942;28;20047;-62
2024/01/12 10:26:18;;;;;;;26.58;25.90;;;;;;;;;;4117097;28;20093;-62
2024/01/12 10:28:19;;;;;;;28.23;27.50;;;;;;;;;;4117483;28;20126;-62
2024/01/12 10:30:21;;;;;;;26.80;26.20;;;;;;;;;;4117281;28;20297;-62
2024/01/12 10:32:24;;;;;;;28.95;28.15;;;;;;;;;;4116954;28;20519;-62
2024/01/12 10:34:33;;;;;;;28.55;27.65;;;;;;;;;;4117082;28;20039;-62
2024/01/12 10:36:36;;;;;;;28.30;27.25;;;;;;;;;;4116911;28;20046;-62
2024/01/12 10:38:38;;;;;;;26.35;25.75;;;;;;;;;;4116614;28;20047;-62
2024/01/12 10:40:40;;;;;;;;;;;;;;;;;;4116621;28;20133;-63
2024/01/12 10:42:47;;;;;;;25.17;24.48;;;;;;;;;;4116643;28;20430;-62
2024/01/12 10:44:50;;;;;;;26.92;26.33;;;;;;;;;;4119491;28;20035;-62
2024/01/12 10:46:57;;;;;;;27.00;26.38;;;;;;;;;;4116982;28;20045;-62
2024/01/12 10:49:03;;;;;;;27.63;26.92;;;;;;;;;;4116668;28;20047;-62
2024/01/12 10:51:06;;;;;;;25.48;24.95;;;;;;;;;;4116788;28;20046;-62
2024/01/12 10:53:12;;;;;;;26.90;26.13;;;;;;;;;;4116324;28;20050;-62
2024/01/12 10:55:21;;;;;;;24.45;23.95;;;;;;;;;;4116728;28;20120;-62
2024/01/12 10:57:22;;;;;;;25.35;24.75;;;;;;;;;;4116650;28;20047;-62
2024/01/12 10:59:25;;;;;;;25.85;25.20;;;;;;;;;;4116574;28;20054;-62
2024/01/12 11:01:26;;;;;;;;;;;;;;;;;;4116398;28;20047;-62
2024/01/12 11:03:28;;;;;;;26.38;25.58;;;;;;;;;;4116134;28;20024;-62
2024/01/12 11:05:32;;;;;;;26.20;25.60;;;;;;;;;;4116605;28;20035;-62
2024/01/12 11:07:38;;;;;;;26.75;25.77;;;;;;;;;;4115432;28;20122;-62
2024/01/12 11:09:40;;;;;;;25.77;24.98;;;;;;;;;;4115264;28;20530;-62
2024/01/12 11:12:01;;;;;;;26.75;25.80;;;;;;;;;;4115592;28;20070;-62
2024/01/12 11:14:03;;;;;;;30.45;29.02;;;;;;;;;;4116199;28;20042;-62
2024/01/12 11:16:05;;;;;;;24.57;23.87;;;;;;;;;;4116003;28;20070;-62
2024/01/12 11:18:07;;;;;;;21.10;20.77;;;;;;;;;;4115562;28;20703;-62
2024/01/12 11:20:10;;;;;;;26.73;25.67;;;;;;;;;;4114764;28;20437;-63
2024/01/12 11:22:13;;;;;;;24.75;24.25;;;;;;;;;;4116352;28;20550;-62
2024/01/12 11:24:15;;;;;;;26.63;25.92;;;;;;;;;;4114240;28;20049;-62
2024/01/12 11:26:17;;;;;;;25.30;24.70;;;;;;;;;;4114192;28;20450;-62
2024/01/12 11:28:19;;;;;;;;;;;;;;;;;;4115999;28;20377;-62
2024/01/12 11:30:21;;;;;;;26.25;25.65;;;;;;;;;;4115880;28;19929;-62
2024/01/12 11:32:23;;;;;;;26.05;25.33;;;;;;;;;;4115577;28;20053;-62
2024/01/12 11:34:28;;;;;;;24.80;24.00;;;;;;;;;;4116165;28;20039;-62
2024/01/12 11:36:30;;;;;;;25.55;24.73;;;;;;;;;;4115688;28;20035;-62
2024/01/12 11:38:38;;;;;;;22.08;21.42;;;;;;;;;;4115863;28;20034;-62
2024/01/12 11:40:42;;;;;;;24.30;23.70;;;;;;;;;;4114235;28;20074;-62
2024/01/12 11:42:47;;;;;;;24.23;23.52;;;;;;;;;;4115800;28;20043;-62
2024/01/12 11:44:48;;;;;;;26.10;25.42;;;;;;;;;;4117459;28;20093;-62
2024/01/12 11:46:51;;;;;;;26.10;25.37;;;;;;;;;;4115827;28;20050;-62
2024/01/12 11:48:52;;;;;;;22.63;22.13;;;;;;;;;;4115851;28;20046;-62
2024/01/12 11:50:54;;;;;;;24.60;24.10;;;;;;;;;;4115835;28;20466;-61
2024/01/12 11:53:00;;;;;;;24.90;24.30;;;;;;;;;;4115741;28;20054;-62